createdAt,value
2022-12-13T00:07:38.074Z,17.3
2022-12-13T00:22:47.923Z,15.6
2022-12-13T00:37:56.815Z,15.7
2022-12-13T00:53:05.960Z,15.2
2022-12-13T01:08:15.786Z,17.1
2022-12-13T01:23:25.868Z,16.6
2022-12-13T01:38:38.452Z,15.7
2022-12-13T01:53:48.137Z,15.4
2022-12-13T02:08:57.381Z,14.9
2022-12-13T02:24:09.585Z,15.8
2022-12-13T02:39:31.003Z,16.6
2022-12-13T02:54:43.106Z,16.6
2022-12-13T03:09:52.510Z,14.2
2022-12-13T03:25:01.797Z,14.3
2022-12-13T03:40:11.035Z,16
2022-12-13T03:55:20.446Z,14.1
2022-12-13T04:10:31.520Z,14.8
2022-12-13T04:25:40.956Z,15.9
2022-12-13T04:40:50.376Z,15.7
2022-12-13T04:55:59.888Z,14.9
2022-12-13T05:11:09.392Z,16.3
2022-12-13T05:26:19.027Z,15.1
2022-12-13T05:41:32.870Z,16.1
2022-12-13T05:56:42.065Z,14.7
2022-12-13T06:12:01.578Z,17.9
2022-12-13T06:27:11.351Z,16.4
2022-12-13T06:42:22.722Z,17.5
2022-12-13T06:57:32.837Z,19.1
2022-12-13T07:12:41.991Z,16.2
2022-12-13T07:27:51.327Z,21.6
2022-12-13T07:43:00.944Z,17.8
2022-12-13T07:58:10.268Z,18.6
2022-12-13T08:13:20.643Z,17.7
2022-12-13T08:28:35.770Z,18.5
2022-12-13T08:43:45.249Z,21.2
2022-12-13T08:58:55.004Z,20.9
2022-12-13T09:14:04.354Z,20.2
2022-12-13T09:29:13.562Z,19.7
2022-12-13T09:44:42.670Z,22
2022-12-13T10:00:13.692Z,21.2
2022-12-13T10:15:23.278Z,20.1
2022-12-13T10:30:33.232Z,21.6
2022-12-13T10:45:43.475Z,21.8
2022-12-13T11:00:54.232Z,19.9
2022-12-13T11:16:03.943Z,21.7
2022-12-13T11:31:13.422Z,21.4
2022-12-13T11:46:23.414Z,22.2
2022-12-13T12:01:38.886Z,22.6
2022-12-13T12:16:49.583Z,24.9
2022-12-13T12:31:59.956Z,22.9
2022-12-13T12:48:05.766Z,22.8
2022-12-13T13:04:49.621Z,31.8
2022-12-13T13:20:12.364Z,25.7
2022-12-13T13:35:22.653Z,25.7
2022-12-13T13:50:32.989Z,22.8
2022-12-13T14:05:42.651Z,25.4
2022-12-13T14:20:51.761Z,24.3
2022-12-13T14:36:00.836Z,23.7
2022-12-13T14:51:10.249Z,21.5
2022-12-13T15:06:19.834Z,22.2
2022-12-13T15:21:33.136Z,21
2022-12-13T15:36:42.566Z,24.6
2022-12-13T15:51:51.651Z,22.3
2022-12-13T16:07:01.098Z,20.1
2022-12-13T16:22:10.411Z,19
2022-12-13T16:37:27.508Z,19.7
2022-12-13T16:52:37.196Z,19.2
2022-12-13T17:07:47.135Z,21.5
2022-12-13T17:22:56.707Z,19.5
2022-12-13T17:38:05.999Z,18.4
2022-12-13T17:53:15.045Z,19.9
2022-12-13T18:08:24.209Z,17.2
2022-12-13T18:23:33.314Z,20.7
2022-12-13T18:38:42.549Z,16.9
2022-12-13T18:53:52.400Z,16.4
2022-12-13T19:09:01.607Z,15.8
2022-12-13T19:24:11.236Z,15.8
2022-12-13T19:39:20.534Z,16.8
2022-12-13T19:54:34.081Z,17.5
2022-12-13T20:09:44.417Z,16.2
2022-12-13T20:24:53.832Z,16.8
2022-12-13T20:40:03.230Z,17.4
2022-12-13T20:55:12.374Z,16.6
2022-12-13T21:10:21.532Z,15.9
2022-12-13T21:25:32.027Z,17.1
2022-12-13T21:40:41.396Z,16
2022-12-13T21:57:01.764Z,20.1
2022-12-13T22:12:12.752Z,15.4
2022-12-13T22:27:22.174Z,17
2022-12-13T22:42:32.457Z,14.8
2022-12-13T22:57:48.792Z,13.7
2022-12-13T23:12:58.491Z,14.7
2022-12-13T23:28:08.120Z,14
2022-12-13T23:43:17.853Z,13.3
2022-12-13T23:58:27.669Z,12.2
